»·PEaware :: N86LW KHQM-S23

N86LW :: KHQM-S23

FLIGHT INFORMATION

Flight Status: Arrived
Operator: Privately registered:
United States
More flights under this callsign
Pilot: Anonymous 30613 (30613)
Aircraft: PIPER PA-28R-201 ARROW
(P28R)
More flights by this aircraft type
Origin: KHQM Bowerman
United States
Destination: S23 Ione Mun
United States
More flights between these airports :: More routes between these airports
Route:
File this flight plan on PilotEdge
Remarks:
Altitude:
(Current/Filed)
3,500ft
Speed:
(Current/Filed)
130kts
Departed: 09-Sep-20 01:16 PM
Arrived: 09-Sep-20 03:46 PM
Distance/Time
Traveled:
283nm/2:30
Distance/Time
To Go:
Arrived

Flight Plot

Page will automatically refresh every two minutes.

Flight plan parsing failed; only flown route is shown


Map Options




Map Legend


Flown Route
Filed Route
Departure Airport
Arrival Airport
Navaid (VOR, NDB)
Fix

Horizontal Profiles

Position Reports

Time Latitude Longitude Heading Altitude Ground
Speed
09-Sep-20 13:09 46.973324 -123.930861 169 16ft 0kts
09-Sep-20 13:10 46.973132 -123.930908 204 16ft 7kts
09-Sep-20 13:11 46.971982 -123.938507 259 16ft 23kts
09-Sep-20 13:12 46.970984 -123.946026 216 18ft 0kts
09-Sep-20 13:13 46.970985 -123.946026 216 18ft 0kts
09-Sep-20 13:14 46.970449 -123.946495 186 18ft 9kts
09-Sep-20 13:15 46.972460 -123.928544 82 281ft 73kts
09-Sep-20 13:16 46.974744 -123.899122 82 980ft 69kts
09-Sep-20 13:17 46.985968 -123.872801 57 1520ft 79kts
09-Sep-20 13:18 46.993929 -123.840273 73 1974ft 88kts
09-Sep-20 13:19 47.001454 -123.807154 72 2568ft 83kts
09-Sep-20 13:20 47.008633 -123.776339 72 3146ft 75kts
09-Sep-20 13:21 47.016404 -123.740193 73 3164ft 113kts
09-Sep-20 13:22 47.026567 -123.693128 72 2996ft 120kts
09-Sep-20 13:23 47.036883 -123.646908 73 2997ft 118kts
09-Sep-20 13:24 47.046983 -123.601330 72 2999ft 116kts
09-Sep-20 13:25 47.056839 -123.556884 72 3003ft 114kts
09-Sep-20 13:26 47.066586 -123.512510 71 3003ft 114kts
09-Sep-20 13:27 47.076423 -123.467721 71 2973ft 116kts
09-Sep-20 13:28 47.086303 -123.422723 70 2974ft 115kts
09-Sep-20 13:29 47.096143 -123.377787 69 2975ft 116kts
09-Sep-20 13:30 47.106098 -123.332398 70 2983ft 117kts
09-Sep-20 13:31 47.116043 -123.286462 70 2980ft 117kts
09-Sep-20 13:32 47.126037 -123.241054 70 2983ft 117kts
09-Sep-20 13:33 47.136010 -123.195126 70 2984ft 118kts
09-Sep-20 13:34 47.145884 -123.149431 69 2980ft 117kts
09-Sep-20 13:35 47.155756 -123.103797 70 2979ft 117kts
09-Sep-20 13:36 47.165675 -123.057911 69 2988ft 118kts
09-Sep-20 13:37 47.175677 -123.011279 69 2992ft 120kts
09-Sep-20 13:38 47.185771 -122.964281 69 2994ft 120kts
09-Sep-20 13:39 47.195894 -122.916924 68 2997ft 122kts
09-Sep-20 13:40 47.206130 -122.868993 68 3001ft 123kts
09-Sep-20 13:41 47.216384 -122.820827 68 3003ft 123kts
09-Sep-20 13:43 47.226616 -122.772638 68 3003ft 122kts
09-Sep-20 13:44 47.236758 -122.724809 67 3001ft 122kts
09-Sep-20 13:45 47.246866 -122.676958 67 3000ft 122kts
09-Sep-20 13:46 47.256896 -122.629434 67 3003ft 121kts
09-Sep-20 13:47 47.268372 -122.583311 42 3001ft 117kts
09-Sep-20 13:48 47.300094 -122.575088 6 3003ft 118kts
09-Sep-20 13:49 47.332855 -122.571971 5 3002ft 118kts
09-Sep-20 13:50 47.365590 -122.568946 5 3000ft 118kts
09-Sep-20 13:51 47.399224 -122.565848 4 2833ft 126kts
09-Sep-20 13:52 47.434040 -122.562689 4 2717ft 121kts
09-Sep-20 13:53 47.467385 -122.559707 4 2719ft 119kts
09-Sep-20 13:54 47.499725 -122.552989 30 2724ft 119kts
09-Sep-20 13:55 47.526732 -122.523717 33 2724ft 121kts
09-Sep-20 13:56 47.554197 -122.493714 33 2723ft 123kts
09-Sep-20 13:57 47.581625 -122.463238 33 2739ft 124kts
09-Sep-20 13:57 47.604855 -122.437308 33 2737ft 126kts
09-Sep-20 13:59 47.642000 -122.414846 10 2735ft 125kts
09-Sep-20 14:00 47.669512 -122.392652 80 2662ft 140kts
09-Sep-20 14:00 47.668007 -122.344708 78 2637ft 136kts
09-Sep-20 14:02 47.675227 -122.280277 78 2606ft 134kts
09-Sep-20 14:03 47.681001 -122.226423 76 2605ft 131kts
09-Sep-20 14:03 47.685936 -122.181852 76 2605ft 130kts
09-Sep-20 14:04 47.691672 -122.128894 76 2607ft 130kts
09-Sep-20 14:05 47.697444 -122.075935 76 2610ft 131kts
09-Sep-20 14:06 47.702985 -122.025038 75 3050ft 117kts
09-Sep-20 14:07 47.708082 -121.978831 75 3645ft 110kts
09-Sep-20 14:08 47.712881 -121.934910 75 4238ft 106kts
09-Sep-20 14:09 47.717530 -121.892361 75 4834ft 102kts
09-Sep-20 14:10 47.722000 -121.851348 75 5428ft 99kts
09-Sep-20 14:11 47.726290 -121.811938 75 6020ft 93kts
09-Sep-20 14:12 47.730378 -121.774544 75 6576ft 93kts
09-Sep-20 14:13 47.734661 -121.734435 76 7030ft 103kts
09-Sep-20 14:14 47.739185 -121.690704 76 7462ft 110kts
09-Sep-20 14:15 47.744405 -121.640896 77 7507ft 129kts
09-Sep-20 14:16 47.749888 -121.587820 77 7508ft 130kts
09-Sep-20 14:17 47.755439 -121.534721 77 7510ft 130kts
09-Sep-20 14:18 47.760967 -121.481740 77 7512ft 130kts
09-Sep-20 14:19 47.766487 -121.428585 77 7515ft 129kts
09-Sep-20 14:20 47.771965 -121.375611 77 7532ft 129kts
09-Sep-20 14:21 47.777418 -121.322645 78 7548ft 129kts
09-Sep-20 14:22 47.782850 -121.269610 78 7561ft 130kts
09-Sep-20 14:23 47.788273 -121.216372 78 7571ft 130kts
09-Sep-20 14:24 47.793689 -121.162965 78 7583ft 130kts
09-Sep-20 14:25 47.799056 -121.109801 78 7601ft 130kts
09-Sep-20 14:26 47.804443 -121.056208 77 7620ft 130kts
09-Sep-20 14:27 47.809793 -121.002705 77 7641ft 131kts
09-Sep-20 14:28 47.815154 -120.948846 77 7676ft 132kts
09-Sep-20 14:29 47.820536 -120.894382 77 7663ft 133kts
09-Sep-20 14:30 47.825921 -120.839654 77 7663ft 133kts
09-Sep-20 14:31 47.831292 -120.784824 77 7663ft 133kts
09-Sep-20 14:32 47.836631 -120.730056 77 7663ft 134kts
09-Sep-20 14:33 47.841960 -120.675114 77 7663ft 134kts
09-Sep-20 14:34 47.847257 -120.620218 77 7663ft 134kts
09-Sep-20 14:35 47.852526 -120.565327 77 7663ft 134kts
09-Sep-20 14:36 47.857785 -120.510263 77 7663ft 134kts
09-Sep-20 14:37 47.863006 -120.455303 77 7663ft 134kts
09-Sep-20 14:38 47.868208 -120.400263 77 7663ft 134kts
09-Sep-20 14:39 47.873366 -120.345398 78 7662ft 134kts
09-Sep-20 14:40 47.878528 -120.290220 78 7662ft 134kts
09-Sep-20 14:41 47.883654 -120.235109 78 7662ft 134kts
09-Sep-20 14:42 47.888749 -120.180031 78 7662ft 134kts
09-Sep-20 14:43 47.893805 -120.125097 78 7662ft 134kts
09-Sep-20 14:44 47.898851 -120.069964 78 7662ft 134kts
09-Sep-20 14:45 47.903870 -120.014831 78 7662ft 134kts
09-Sep-20 14:46 47.908860 -119.959695 78 7661ft 134kts
09-Sep-20 14:47 47.913820 -119.904593 77 7660ft 134kts
09-Sep-20 14:48 47.918743 -119.849639 77 7659ft 134kts
09-Sep-20 14:49 47.923541 -119.795448 81 7658ft 127kts
09-Sep-20 14:50 47.928116 -119.743854 81 7659ft 124kts
09-Sep-20 14:51 47.932643 -119.692674 81 7660ft 124kts
09-Sep-20 14:52 47.937111 -119.641771 81 7661ft 124kts
09-Sep-20 14:53 47.941553 -119.590826 81 7661ft 123kts
09-Sep-20 14:54 47.945969 -119.539909 81 7662ft 123kts
09-Sep-20 14:55 47.950358 -119.489036 81 7663ft 123kts
09-Sep-20 14:56 47.954736 -119.438015 81 7663ft 123kts
09-Sep-20 14:57 47.959078 -119.387155 81 7664ft 123kts
09-Sep-20 14:58 47.963406 -119.336172 82 7666ft 124kts
09-Sep-20 14:59 47.967734 -119.284895 82 7667ft 124kts
09-Sep-20 15:00 47.972022 -119.233813 82 7668ft 124kts
09-Sep-20 15:01 47.976334 -119.182149 82 7641ft 125kts
09-Sep-20 15:02 47.980595 -119.130790 82 7642ft 124kts
09-Sep-20 15:03 47.984843 -119.079433 82 7643ft 124kts
09-Sep-20 15:04 47.989065 -119.028043 82 7643ft 124kts
09-Sep-20 15:05 47.997217 -118.977835 69 7644ft 125kts
09-Sep-20 15:06 48.010012 -118.929025 69 7645ft 127kts
09-Sep-20 15:07 48.023019 -118.879490 69 7645ft 129kts
09-Sep-20 15:08 48.036188 -118.829232 69 7645ft 130kts
09-Sep-20 15:09 48.049423 -118.778605 68 7646ft 131kts
09-Sep-20 15:10 48.062727 -118.727593 68 7651ft 131kts
09-Sep-20 15:11 48.076010 -118.676557 68 7654ft 131kts
09-Sep-20 15:12 48.089262 -118.625532 68 7656ft 131kts
09-Sep-20 15:13 48.102503 -118.574435 68 7657ft 131kts
09-Sep-20 15:14 48.115759 -118.523173 68 7659ft 131kts
09-Sep-20 15:15 48.128958 -118.472012 68 7662ft 131kts
09-Sep-20 15:16 48.142102 -118.420954 68 7667ft 131kts
09-Sep-20 15:17 48.155219 -118.369884 68 7673ft 131kts
09-Sep-20 15:18 48.168333 -118.318718 68 7681ft 131kts
09-Sep-20 15:19 48.181443 -118.267412 68 7682ft 132kts
09-Sep-20 15:20 48.194549 -118.216034 69 7682ft 132kts
09-Sep-20 15:21 48.207642 -118.164594 69 7682ft 132kts
09-Sep-20 15:22 48.220748 -118.112983 69 7682ft 132kts
09-Sep-20 15:23 48.233659 -118.061522 69 7682ft 132kts
09-Sep-20 15:24 48.246393 -118.009718 69 7682ft 132kts
09-Sep-20 15:25 48.259081 -117.958130 69 7682ft 132kts
09-Sep-20 15:26 48.271825 -117.906338 69 7682ft 132kts
09-Sep-20 15:27 48.284545 -117.854671 69 7682ft 132kts
09-Sep-20 15:28 48.297317 -117.802818 69 7682ft 132kts
09-Sep-20 15:29 48.310033 -117.751220 69 7682ft 132kts
09-Sep-20 15:30 48.322820 -117.699362 69 7682ft 132kts
09-Sep-20 15:31 48.335581 -117.647636 69 7681ft 132kts
09-Sep-20 15:32 48.348626 -117.596109 69 7682ft 132kts
09-Sep-20 15:33 48.361079 -117.544172 73 7685ft 132kts
09-Sep-20 15:34 48.371404 -117.491124 73 7687ft 132kts
09-Sep-20 15:35 48.385724 -117.438346 67 7525ft 136kts
09-Sep-20 15:36 48.401083 -117.386156 50 7362ft 139kts
09-Sep-20 15:38 48.434084 -117.354391 22 7090ft 144kts
09-Sep-20 15:39 48.474055 -117.339489 5 6589ft 150kts
09-Sep-20 15:40 48.515725 -117.341464 356 6117ft 151kts
09-Sep-20 15:41 48.557124 -117.352168 350 5641ft 150kts
09-Sep-20 15:42 48.598370 -117.367330 347 4938ft 159kts
09-Sep-20 15:43 48.642665 -117.377966 344 3618ft 161kts
09-Sep-20 15:44 48.675456 -117.402250 349 2866ft 110kts
09-Sep-20 15:45 48.700334 -117.410380 349 2179ft 80kts
09-Sep-20 15:46 48.711391 -117.414128 348 2115ft 16kts
09-Sep-20 15:47 48.713670 -117.414480 152 2113ft 7kts
09-Sep-20 15:48 48.713421 -117.413920 260 2113ft 0kts
09-Sep-20 15:49 48.713421 -117.413920 260 2113ft 0kts
09-Sep-20 15:50 48.713421 -117.413920 260 2113ft 0kts

Navigation Log

Ident Type
Flight plan parsing failed, navigation log unavailable